Terminal Aerodrome Forecast
Issued by NWS

Home | Current Version | Previous Version | Text Only | Print | Product List | Glossary On
Versions: 1 2 3 4 5 6 7 8 9 10 11 12 13 14 15 16 17 18 19 20 21 22 23 24 25 26 27 28 29 30 31 32 33 34 35 36
000
FTUS44 KFWD 261123
TAFFTW
TAF
KFTW 261123Z 2612/2712 21008KT P6SM SCT150
     FM262000 17012KT P6SM VCTS BKN080CB
     FM262200 14011KT P6SM BKN080
     FM270000 14011KT P6SM VCTS BKN060CB
     FM270400 12012KT 4SM TSRA BKN025CB OVC080
     FM270900 06010KT P6SM VCSH BKN015=

USA.gov is the U.S. government's official web portal to all federal, state and local government web resources and services.